• Join FlightAware (Why Join?)
  • Login
  • US Flag 
12:33AM EDT


 

Airport Tracker/Info


-or-


 

Live Flight TrackerFlight Track Log ✈ PDT4155 ✈ 25-Sep-2013 ✈ KBGM - KPHL

Flight Track Log - Related Links

Times and Time Zones

All times are in EDT time to prevent confusion due to time zone crossing. See the PDT4155 flight status page for this flight to view local times or setup timezone preferences in your user account.

Time Position Orientation Groundspeed Altitude Reporting Facility
EDT Latitude Longitude Course Direction KTS MPH feet Rate Location/Type
07:12AM 42.0499 -75.9277 180° South  Level Estimated
07:13AM 41.9955 -75.9288 181° South  Level FlightAware Approximate
07:14AM 41.9412 -75.9298 181° South  Level FlightAware Approximate
07:15AM 41.8868 -75.9308 181° South  Level FlightAware Approximate
07:16AM 41.8342 -75.9122 154° Southeast  Level Estimated
07:17AM 41.7816 -75.8937 160° South  Level Estimated
07:18AM 41.7278 -75.8839 172° South  Level FlightAware Approximate
07:19AM 41.6752 -75.8651 159° South  Level Estimated
07:20AM 41.6228 -75.8456 164° South  Level FlightAware Approximate
07:21AM 41.5703 -75.8270 153° Southeast  Level Estimated
07:22AM 41.5177 -75.8084 161° South  Level Estimated
07:23AM 41.4668 -75.7829 159° South  Level FlightAware Approximate
07:24AM 41.4159 -75.7575 159° South  Level FlightAware Approximate
07:25AM 41.3649 -75.7321 160° South  Level FlightAware Approximate
07:26AM 41.3122 -75.7144 162° South  Level Estimated
07:27AM 41.2610 -75.6901 160° South  Level FlightAware Approximate
07:28AM 41.2098 -75.6658 160° South  Level FlightAware Approximate
07:29AM 41.1586 -75.6415 160° South  Level FlightAware Approximate
07:30AM 41.1074 -75.6173 160° South  Level FlightAware Approximate
07:31AM 41.0544 -75.6009 159° South  Level Estimated
07:32AM 41.0015 -75.5845 163° South  Level Estimated
07:33AM 40.9503 -75.5602 160° South  Level FlightAware Approximate
07:34AM 40.8991 -75.5360 160° South  Level FlightAware Approximate
07:34AM 40.7167 -75.4500 190° South 254 292 7,900  Level Philadelphia TRACON
07:35AM 40.8298 -75.5033 160° South  Level FlightAware Approximate
07:35AM 40.6500 -75.4667 191° South 268 308 7,100  Level Philadelphia TRACON
07:36AM 40.7578 -75.4833 190° South  Level Estimated
07:36AM 40.5833 -75.4833 191° South 273 314 6,200  Level Philadelphia TRACON
07:37AM 40.6843 -75.4881 183° South  Level FlightAware Approximate
07:37AM 40.5000 -75.4833 180° South 277 319 5,100  Level Philadelphia TRACON
07:38AM 40.6109 -75.4928 183° South  Level FlightAware Approximate
07:38AM 40.4333 -75.4333 150° Southeast 259 298 5,000  Level Philadelphia TRACON
07:39AM 40.5397 -75.4683 187° South  Level Estimated
07:39AM 40.3833 -75.4000 153° Southeast 250 288 5,000  Level Philadelphia TRACON
07:40AM 40.4685 -75.4438 190° South  Level Estimated
07:40AM 40.3167 -75.3667 159° South 247 284 5,000  Level Philadelphia TRACON
07:41AM 40.2500 -75.3333 159° South 246 283 5,000 -180 Level Philadelphia TRACON
07:42AM 40.1833 -75.2833 150° Southeast 248 285 4,700 -660 Descending Philadelphia TRACON
07:43AM 40.1333 -75.2333 143° Southeast 269 310 3,800 -840 Descending Philadelphia TRACON
07:45AM 40.0500 -75.2000 163° South 249 287 2,900 -720 Descending Philadelphia TRACON
07:46AM 39.9833 -75.1833 169° South 220 253 2,200 -660 Descending Philadelphia TRACON
07:47AM 39.9333 -75.1833 180° South 168 193 1,700 -900 Descending Philadelphia TRACON
07:48AM 39.9000 -75.1833 180° South 139 160 600 -1,140 Descending Philadelphia TRACON